sensor_id;sensor_type;location;lat;lon;timestamp;P1;durP1;ratioP1;P2;durP2;ratioP2
5959;SDS011;3006;50.956;7.002;2024-02-26T00:02:22;5.23;;;1.60;;
5959;SDS011;3006;50.956;7.002;2024-02-26T00:04:50;1.87;;;1.50;;
5959;SDS011;3006;50.956;7.002;2024-02-26T00:07:19;2.20;;;1.70;;
5959;SDS011;3006;50.956;7.002;2024-02-26T00:09:47;2.40;;;1.67;;
5959;SDS011;3006;50.956;7.002;2024-02-26T00:12:16;1.70;;;1.53;;
5959;SDS011;3006;50.956;7.002;2024-02-26T00:14:45;2.60;;;1.47;;
5959;SDS011;3006;50.956;7.002;2024-02-26T00:17:14;1.80;;;1.70;;
5959;SDS011;3006;50.956;7.002;2024-02-26T00:19:43;1.73;;;1.60;;
5959;SDS011;3006;50.956;7.002;2024-02-26T00:22:11;1.73;;;1.53;;
5959;SDS011;3006;50.956;7.002;2024-02-26T00:24:39;1.90;;;1.60;;
5959;SDS011;3006;50.956;7.002;2024-02-26T00:27:08;2.77;;;1.13;;
5959;SDS011;3006;50.956;7.002;2024-02-26T00:29:37;2.10;;;1.60;;
5959;SDS011;3006;50.956;7.002;2024-02-26T00:32:06;2.97;;;1.53;;
5959;SDS011;3006;50.956;7.002;2024-02-26T00:34:34;1.53;;;1.20;;
5959;SDS011;3006;50.956;7.002;2024-02-26T00:37:02;2.30;;;1.50;;
5959;SDS011;3006;50.956;7.002;2024-02-26T00:39:31;1.50;;;1.27;;
5959;SDS011;3006;50.956;7.002;2024-02-26T00:41:59;1.37;;;1.27;;
5959;SDS011;3006;50.956;7.002;2024-02-26T00:44:27;1.83;;;1.30;;
5959;SDS011;3006;50.956;7.002;2024-02-26T00:46:57;2.03;;;1.43;;
5959;SDS011;3006;50.956;7.002;2024-02-26T00:49:25;2.33;;;1.53;;
5959;SDS011;3006;50.956;7.002;2024-02-26T00:51:53;2.23;;;1.20;;
5959;SDS011;3006;50.956;7.002;2024-02-26T00:54:22;1.97;;;1.47;;
5959;SDS011;3006;50.956;7.002;2024-02-26T00:56:50;2.13;;;1.20;;
5959;SDS011;3006;50.956;7.002;2024-02-26T00:59:18;1.60;;;1.50;;
5959;SDS011;3006;50.956;7.002;2024-02-26T01:01:46;2.30;;;1.30;;
5959;SDS011;3006;50.956;7.002;2024-02-26T01:04:16;1.57;;;1.40;;
5959;SDS011;3006;50.956;7.002;2024-02-26T01:06:44;1.60;;;1.50;;
5959;SDS011;3006;50.956;7.002;2024-02-26T01:09:12;5.00;;;1.53;;
5959;SDS011;3006;50.956;7.002;2024-02-26T01:11:41;1.57;;;1.47;;
5959;SDS011;3006;50.956;7.002;2024-02-26T01:14:09;1.50;;;1.40;;
5959;SDS011;3006;50.956;7.002;2024-02-26T01:16:37;4.73;;;1.80;;
5959;SDS011;3006;50.956;7.002;2024-02-26T01:19:05;1.90;;;1.70;;
5959;SDS011;3006;50.956;7.002;2024-02-26T01:21:35;2.13;;;1.80;;
5959;SDS011;3006;50.956;7.002;2024-02-26T01:24:04;2.40;;;1.73;;
5959;SDS011;3006;50.956;7.002;2024-02-26T01:26:32;4.20;;;1.63;;
5959;SDS011;3006;50.956;7.002;2024-02-26T01:29:00;1.73;;;1.63;;
5959;SDS011;3006;50.956;7.002;2024-02-26T01:31:28;2.80;;;2.50;;
5959;SDS011;3006;50.956;7.002;2024-02-26T01:33:56;2.53;;;1.20;;
5959;SDS011;3006;50.956;7.002;2024-02-26T01:36:25;2.07;;;1.30;;
5959;SDS011;3006;50.956;7.002;2024-02-26T01:38:54;1.77;;;1.37;;
5959;SDS011;3006;50.956;7.002;2024-02-26T01:41:22;1.10;;;1.00;;
5959;SDS011;3006;50.956;7.002;2024-02-26T01:43:51;1.73;;;1.10;;
5959;SDS011;3006;50.956;7.002;2024-02-26T01:46:19;1.30;;;1.20;;
5959;SDS011;3006;50.956;7.002;2024-02-26T01:48:48;1.70;;;1.57;;
5959;SDS011;3006;50.956;7.002;2024-02-26T01:51:17;1.63;;;1.37;;
5959;SDS011;3006;50.956;7.002;2024-02-26T01:53:45;1.27;;;1.07;;
5959;SDS011;3006;50.956;7.002;2024-02-26T01:56:15;2.23;;;1.60;;
5959;SDS011;3006;50.956;7.002;2024-02-26T01:58:46;1.73;;;1.17;;
5959;SDS011;3006;50.956;7.002;2024-02-26T02:01:15;1.33;;;1.20;;
5959;SDS011;3006;50.956;7.002;2024-02-26T02:03:46;1.60;;;1.30;;
5959;SDS011;3006;50.956;7.002;2024-02-26T02:06:14;3.63;;;1.00;;
5959;SDS011;3006;50.956;7.002;2024-02-26T02:08:43;1.50;;;1.20;;
5959;SDS011;3006;50.956;7.002;2024-02-26T02:11:12;1.20;;;1.10;;
5959;SDS011;3006;50.956;7.002;2024-02-26T02:13:42;2.20;;;1.10;;
5959;SDS011;3006;50.956;7.002;2024-02-26T02:16:10;1.80;;;1.17;;
5959;SDS011;3006;50.956;7.002;2024-02-26T02:18:39;1.10;;;1.00;;
5959;SDS011;3006;50.956;7.002;2024-02-26T02:21:08;1.87;;;1.40;;
5959;SDS011;3006;50.956;7.002;2024-02-26T02:23:36;1.93;;;1.63;;
5959;SDS011;3006;50.956;7.002;2024-02-26T02:26:05;1.73;;;1.60;;
5959;SDS011;3006;50.956;7.002;2024-02-26T02:28:33;1.83;;;1.30;;
5959;SDS011;3006;50.956;7.002;2024-02-26T02:31:01;1.53;;;1.30;;
5959;SDS011;3006;50.956;7.002;2024-02-26T02:33:30;2.40;;;1.03;;
5959;SDS011;3006;50.956;7.002;2024-02-26T02:35:58;1.30;;;1.20;;
5959;SDS011;3006;50.956;7.002;2024-02-26T02:38:28;1.20;;;1.10;;
5959;SDS011;3006;50.956;7.002;2024-02-26T02:40:56;2.70;;;1.30;;
5959;SDS011;3006;50.956;7.002;2024-02-26T02:43:24;1.27;;;1.17;;
5959;SDS011;3006;50.956;7.002;2024-02-26T02:45:52;1.43;;;1.33;;
5959;SDS011;3006;50.956;7.002;2024-02-26T02:48:21;1.30;;;1.20;;
5959;SDS011;3006;50.956;7.002;2024-02-26T02:50:49;1.07;;;0.97;;
5959;SDS011;3006;50.956;7.002;2024-02-26T02:53:17;1.87;;;1.20;;
5959;SDS011;3006;50.956;7.002;2024-02-26T02:55:46;2.10;;;1.10;;
5959;SDS011;3006;50.956;7.002;2024-02-26T02:58:15;2.13;;;1.20;;
5959;SDS011;3006;50.956;7.002;2024-02-26T03:00:43;1.13;;;1.00;;
5959;SDS011;3006;50.956;7.002;2024-02-26T03:03:11;2.00;;;1.27;;
5959;SDS011;3006;50.956;7.002;2024-02-26T03:05:40;1.30;;;1.20;;
5959;SDS011;3006;50.956;7.002;2024-02-26T03:08:08;1.67;;;1.30;;
5959;SDS011;3006;50.956;7.002;2024-02-26T03:10:36;1.30;;;1.10;;
5959;SDS011;3006;50.956;7.002;2024-02-26T03:13:06;1.40;;;1.30;;
5959;SDS011;3006;50.956;7.002;2024-02-26T03:15:34;1.47;;;1.37;;
5959;SDS011;3006;50.956;7.002;2024-02-26T03:18:03;2.77;;;2.20;;
5959;SDS011;3006;50.956;7.002;2024-02-26T03:20:31;1.33;;;1.20;;
5959;SDS011;3006;50.956;7.002;2024-02-26T03:22:59;1.87;;;0.90;;
5959;SDS011;3006;50.956;7.002;2024-02-26T03:25:27;3.60;;;1.10;;
5959;SDS011;3006;50.956;7.002;2024-02-26T03:27:55;2.67;;;0.97;;
5959;SDS011;3006;50.956;7.002;2024-02-26T03:30:25;1.37;;;1.27;;
5959;SDS011;3006;50.956;7.002;2024-02-26T03:32:53;2.80;;;1.27;;
5959;SDS011;3006;50.956;7.002;2024-02-26T03:35:22;2.57;;;1.23;;
5959;SDS011;3006;50.956;7.002;2024-02-26T03:37:50;2.00;;;1.23;;
5959;SDS011;3006;50.956;7.002;2024-02-26T03:40:18;1.50;;;1.13;;
5959;SDS011;3006;50.956;7.002;2024-02-26T03:42:46;1.37;;;1.27;;
5959;SDS011;3006;50.956;7.002;2024-02-26T03:45:14;1.00;;;0.90;;
5959;SDS011;3006;50.956;7.002;2024-02-26T03:47:44;1.10;;;1.00;;
5959;SDS011;3006;50.956;7.002;2024-02-26T03:50:12;4.40;;;1.77;;
5959;SDS011;3006;50.956;7.002;2024-02-26T03:52:40;1.80;;;1.50;;
5959;SDS011;3006;50.956;7.002;2024-02-26T03:55:09;1.20;;;1.10;;
5959;SDS011;3006;50.956;7.002;2024-02-26T03:57:37;2.27;;;1.40;;
5959;SDS011;3006;50.956;7.002;2024-02-26T04:00:06;1.40;;;1.10;;
5959;SDS011;3006;50.956;7.002;2024-02-26T04:02:38;1.20;;;1.10;;
5959;SDS011;3006;50.956;7.002;2024-02-26T04:05:10;1.93;;;1.00;;
5959;SDS011;3006;50.956;7.002;2024-02-26T04:07:38;1.53;;;1.20;;
5959;SDS011;3006;50.956;7.002;2024-02-26T04:10:09;2.07;;;1.40;;
5959;SDS011;3006;50.956;7.002;2024-02-26T04:12:38;2.60;;;1.20;;
5959;SDS011;3006;50.956;7.002;2024-02-26T04:15:08;1.80;;;1.13;;
5959;SDS011;3006;50.956;7.002;2024-02-26T04:17:37;1.80;;;1.20;;
5959;SDS011;3006;50.956;7.002;2024-02-26T04:20:06;1.87;;;1.67;;
5959;SDS011;3006;50.956;7.002;2024-02-26T04:22:37;1.83;;;1.43;;
5959;SDS011;3006;50.956;7.002;2024-02-26T04:25:05;1.57;;;1.43;;
5959;SDS011;3006;50.956;7.002;2024-02-26T04:27:34;3.27;;;1.60;;
5959;SDS011;3006;50.956;7.002;2024-02-26T04:30:02;4.80;;;1.30;;
5959;SDS011;3006;50.956;7.002;2024-02-26T04:32:31;1.73;;;1.57;;
5959;SDS011;3006;50.956;7.002;2024-02-26T04:35:00;2.43;;;1.60;;
5959;SDS011;3006;50.956;7.002;2024-02-26T04:37:29;2.77;;;1.30;;
5959;SDS011;3006;50.956;7.002;2024-02-26T04:39:59;2.00;;;1.50;;
5959;SDS011;3006;50.956;7.002;2024-02-26T04:42:29;4.13;;;1.50;;
5959;SDS011;3006;50.956;7.002;2024-02-26T04:44:57;1.73;;;1.53;;
5959;SDS011;3006;50.956;7.002;2024-02-26T04:47:25;2.30;;;1.20;;
5959;SDS011;3006;50.956;7.002;2024-02-26T04:49:53;3.47;;;1.20;;
5959;SDS011;3006;50.956;7.002;2024-02-26T04:52:21;1.53;;;1.37;;
5959;SDS011;3006;50.956;7.002;2024-02-26T04:54:49;2.20;;;1.30;;
5959;SDS011;3006;50.956;7.002;2024-02-26T04:57:19;5.93;;;3.60;;
5959;SDS011;3006;50.956;7.002;2024-02-26T04:59:48;3.80;;;1.50;;
5959;SDS011;3006;50.956;7.002;2024-02-26T05:02:16;1.87;;;1.60;;
5959;SDS011;3006;50.956;7.002;2024-02-26T05:04:45;2.60;;;1.20;;
5959;SDS011;3006;50.956;7.002;2024-02-26T05:07:13;1.33;;;1.23;;
5959;SDS011;3006;50.956;7.002;2024-02-26T05:09:44;4.93;;;1.67;;
5959;SDS011;3006;50.956;7.002;2024-02-26T05:12:12;2.60;;;1.37;;
5959;SDS011;3006;50.956;7.002;2024-02-26T05:14:42;1.90;;;1.40;;
5959;SDS011;3006;50.956;7.002;2024-02-26T05:17:10;2.10;;;1.60;;
5959;SDS011;3006;50.956;7.002;2024-02-26T05:19:38;2.27;;;1.47;;
5959;SDS011;3006;50.956;7.002;2024-02-26T05:22:06;5.10;;;2.07;;
5959;SDS011;3006;50.956;7.002;2024-02-26T05:24:37;2.40;;;1.43;;
5959;SDS011;3006;50.956;7.002;2024-02-26T05:27:05;3.53;;;1.40;;
5959;SDS011;3006;50.956;7.002;2024-02-26T05:29:33;4.00;;;1.83;;
5959;SDS011;3006;50.956;7.002;2024-02-26T05:32:03;3.03;;;1.43;;
5959;SDS011;3006;50.956;7.002;2024-02-26T05:34:32;2.47;;;1.40;;
5959;SDS011;3006;50.956;7.002;2024-02-26T05:37:00;2.17;;;1.27;;
5959;SDS011;3006;50.956;7.002;2024-02-26T05:39:28;3.27;;;1.90;;
5959;SDS011;3006;50.956;7.002;2024-02-26T05:41:57;2.50;;;1.27;;
5959;SDS011;3006;50.956;7.002;2024-02-26T05:44:26;2.37;;;1.63;;
5959;SDS011;3006;50.956;7.002;2024-02-26T05:46:54;1.40;;;1.30;;
5959;SDS011;3006;50.956;7.002;2024-02-26T05:49:23;2.23;;;2.03;;
5959;SDS011;3006;50.956;7.002;2024-02-26T05:51:52;1.83;;;1.63;;
5959;SDS011;3006;50.956;7.002;2024-02-26T05:54:20;1.50;;;1.40;;
5959;SDS011;3006;50.956;7.002;2024-02-26T05:56:49;2.20;;;1.50;;
5959;SDS011;3006;50.956;7.002;2024-02-26T05:59:17;2.13;;;1.50;;
5959;SDS011;3006;50.956;7.002;2024-02-26T06:01:45;1.60;;;1.50;;
5959;SDS011;3006;50.956;7.002;2024-02-26T06:04:13;2.00;;;1.40;;
5959;SDS011;3006;50.956;7.002;2024-02-26T06:06:43;7.30;;;1.93;;
5959;SDS011;3006;50.956;7.002;2024-02-26T06:09:12;4.23;;;2.10;;
5959;SDS011;3006;50.956;7.002;2024-02-26T06:11:40;2.17;;;1.70;;
5959;SDS011;3006;50.956;7.002;2024-02-26T06:14:08;3.13;;;1.77;;
5959;SDS011;3006;50.956;7.002;2024-02-26T06:16:38;2.57;;;1.77;;
5959;SDS011;3006;50.956;7.002;2024-02-26T06:19:06;2.40;;;2.20;;
5959;SDS011;3006;50.956;7.002;2024-02-26T06:21:38;1.87;;;1.63;;
5959;SDS011;3006;50.956;7.002;2024-02-26T06:24:07;1.70;;;1.60;;
5959;SDS011;3006;50.956;7.002;2024-02-26T06:26:36;3.40;;;2.17;;
5959;SDS011;3006;50.956;7.002;2024-02-26T06:29:04;2.10;;;1.43;;
5959;SDS011;3006;50.956;7.002;2024-02-26T06:31:32;2.07;;;1.67;;
5959;SDS011;3006;50.956;7.002;2024-02-26T06:34:00;1.80;;;1.60;;
5959;SDS011;3006;50.956;7.002;2024-02-26T06:36:28;2.53;;;1.50;;
5959;SDS011;3006;50.956;7.002;2024-02-26T06:38:58;3.43;;;1.67;;
5959;SDS011;3006;50.956;7.002;2024-02-26T06:41:27;3.50;;;2.00;;
5959;SDS011;3006;50.956;7.002;2024-02-26T06:43:56;2.10;;;1.87;;
5959;SDS011;3006;50.956;7.002;2024-02-26T06:46:24;4.93;;;2.90;;
5959;SDS011;3006;50.956;7.002;2024-02-26T06:48:55;2.33;;;1.80;;
5959;SDS011;3006;50.956;7.002;2024-02-26T06:51:23;2.53;;;2.10;;
5959;SDS011;3006;50.956;7.002;2024-02-26T06:53:51;2.10;;;1.90;;
5959;SDS011;3006;50.956;7.002;2024-02-26T06:56:20;2.03;;;1.83;;
5959;SDS011;3006;50.956;7.002;2024-02-26T06:58:49;2.70;;;1.67;;
5959;SDS011;3006;50.956;7.002;2024-02-26T07:01:17;4.00;;;2.63;;
5959;SDS011;3006;50.956;7.002;2024-02-26T07:03:46;2.40;;;2.20;;
5959;SDS011;3006;50.956;7.002;2024-02-26T07:06:14;3.30;;;2.67;;
5959;SDS011;3006;50.956;7.002;2024-02-26T07:08:42;2.50;;;2.00;;
5959;SDS011;3006;50.956;7.002;2024-02-26T07:11:11;3.50;;;1.97;;
5959;SDS011;3006;50.956;7.002;2024-02-26T07:13:39;3.07;;;1.97;;
5959;SDS011;3006;50.956;7.002;2024-02-26T07:16:10;3.07;;;2.43;;
5959;SDS011;3006;50.956;7.002;2024-02-26T07:18:38;2.73;;;2.33;;
5959;SDS011;3006;50.956;7.002;2024-02-26T07:21:07;2.40;;;1.87;;
5959;SDS011;3006;50.956;7.002;2024-02-26T07:23:35;1.97;;;1.77;;
5959;SDS011;3006;50.956;7.002;2024-02-26T07:26:03;2.30;;;2.10;;
5959;SDS011;3006;50.956;7.002;2024-02-26T07:28:32;3.50;;;1.90;;
5959;SDS011;3006;50.956;7.002;2024-02-26T07:31:00;2.10;;;1.70;;
5959;SDS011;3006;50.956;7.002;2024-02-26T07:33:29;4.23;;;2.67;;
5959;SDS011;3006;50.956;7.002;2024-02-26T07:35:58;2.70;;;2.40;;
5959;SDS011;3006;50.956;7.002;2024-02-26T07:38:26;3.97;;;2.30;;
5959;SDS011;3006;50.956;7.002;2024-02-26T07:41:08;3.57;;;2.23;;
5959;SDS011;3006;50.956;7.002;2024-02-26T07:43:36;3.90;;;2.80;;
5959;SDS011;3006;50.956;7.002;2024-02-26T07:46:04;3.67;;;2.20;;
5959;SDS011;3006;50.956;7.002;2024-02-26T07:48:34;4.07;;;2.20;;
5959;SDS011;3006;50.956;7.002;2024-02-26T07:51:03;5.70;;;3.97;;
5959;SDS011;3006;50.956;7.002;2024-02-26T07:53:31;3.67;;;1.60;;
5959;SDS011;3006;50.956;7.002;2024-02-26T07:55:59;3.40;;;1.70;;
5959;SDS011;3006;50.956;7.002;2024-02-26T07:58:27;2.80;;;1.90;;
5959;SDS011;3006;50.956;7.002;2024-02-26T08:00:56;2.60;;;1.73;;
5959;SDS011;3006;50.956;7.002;2024-02-26T08:03:24;2.00;;;1.80;;
5959;SDS011;3006;50.956;7.002;2024-02-26T08:05:53;3.53;;;2.10;;
5959;SDS011;3006;50.956;7.002;2024-02-26T08:08:22;2.10;;;1.77;;
5959;SDS011;3006;50.956;7.002;2024-02-26T08:10:50;1.83;;;1.73;;
5959;SDS011;3006;50.956;7.002;2024-02-26T08:13:19;3.70;;;2.07;;
5959;SDS011;3006;50.956;7.002;2024-02-26T08:15:47;2.03;;;1.83;;
5959;SDS011;3006;50.956;7.002;2024-02-26T08:18:15;2.00;;;1.80;;
5959;SDS011;3006;50.956;7.002;2024-02-26T08:20:43;2.00;;;1.83;;
5959;SDS011;3006;50.956;7.002;2024-02-26T08:23:13;1.80;;;1.70;;
5959;SDS011;3006;50.956;7.002;2024-02-26T08:25:41;1.80;;;1.70;;
5959;SDS011;3006;50.956;7.002;2024-02-26T08:28:09;3.00;;;1.87;;
5959;SDS011;3006;50.956;7.002;2024-02-26T08:36:37;2.60;;;2.17;;
5959;SDS011;3006;50.956;7.002;2024-02-26T08:39:07;2.70;;;2.00;;
5959;SDS011;3006;50.956;7.002;2024-02-26T08:41:35;2.37;;;2.17;;
5959;SDS011;3006;50.956;7.002;2024-02-26T08:44:04;3.70;;;2.60;;
5959;SDS011;3006;50.956;7.002;2024-02-26T08:46:32;3.70;;;2.40;;
5959;SDS011;3006;50.956;7.002;2024-02-26T08:49:00;6.13;;;2.23;;
5959;SDS011;3006;50.956;7.002;2024-02-26T08:51:28;2.90;;;2.10;;
5959;SDS011;3006;50.956;7.002;2024-02-26T08:53:57;3.20;;;2.10;;
5959;SDS011;3006;50.956;7.002;2024-02-26T08:56:26;4.03;;;1.90;;
5959;SDS011;3006;50.956;7.002;2024-02-26T08:58:55;4.47;;;2.50;;
5959;SDS011;3006;50.956;7.002;2024-02-26T09:01:23;2.90;;;2.27;;
5959;SDS011;3006;50.956;7.002;2024-02-26T09:03:52;3.40;;;1.63;;
5959;SDS011;3006;50.956;7.002;2024-02-26T09:06:20;2.33;;;2.13;;
5959;SDS011;3006;50.956;7.002;2024-02-26T09:08:48;3.13;;;2.07;;
5959;SDS011;3006;50.956;7.002;2024-02-26T09:11:17;2.23;;;2.00;;
5959;SDS011;3006;50.956;7.002;2024-02-26T09:13:46;4.03;;;2.00;;
5959;SDS011;3006;50.956;7.002;2024-02-26T09:16:14;2.93;;;2.00;;
5959;SDS011;3006;50.956;7.002;2024-02-26T09:18:43;3.83;;;2.37;;
5959;SDS011;3006;50.956;7.002;2024-02-26T09:21:11;2.53;;;2.30;;
5959;SDS011;3006;50.956;7.002;2024-02-26T09:23:39;4.27;;;2.80;;
5959;SDS011;3006;50.956;7.002;2024-02-26T09:26:08;3.13;;;2.50;;
5959;SDS011;3006;50.956;7.002;2024-02-26T09:28:36;3.20;;;2.63;;
5959;SDS011;3006;50.956;7.002;2024-02-26T09:31:06;3.80;;;2.57;;
5959;SDS011;3006;50.956;7.002;2024-02-26T09:33:34;4.97;;;2.50;;
5959;SDS011;3006;50.956;7.002;2024-02-26T09:36:03;2.50;;;2.20;;
5959;SDS011;3006;50.956;7.002;2024-02-26T09:38:32;5.60;;;2.50;;
5959;SDS011;3006;50.956;7.002;2024-02-26T09:41:21;3.83;;;2.40;;
5959;SDS011;3006;50.956;7.002;2024-02-26T09:43:49;2.50;;;2.20;;
5959;SDS011;3006;50.956;7.002;2024-02-26T09:46:21;5.00;;;2.40;;
5959;SDS011;3006;50.956;7.002;2024-02-26T09:48:50;2.70;;;2.27;;
5959;SDS011;3006;50.956;7.002;2024-02-26T09:51:18;3.57;;;2.43;;
5959;SDS011;3006;50.956;7.002;2024-02-26T09:53:51;4.80;;;2.47;;
5959;SDS011;3006;50.956;7.002;2024-02-26T09:56:20;5.23;;;3.67;;
5959;SDS011;3006;50.956;7.002;2024-02-26T09:58:49;2.50;;;2.27;;
5959;SDS011;3006;50.956;7.002;2024-02-26T10:01:22;4.10;;;2.77;;
5959;SDS011;3006;50.956;7.002;2024-02-26T10:03:55;4.30;;;2.73;;
5959;SDS011;3006;50.956;7.002;2024-02-26T10:06:25;2.73;;;2.43;;
5959;SDS011;3006;50.956;7.002;2024-02-26T10:08:54;2.33;;;2.10;;
5959;SDS011;3006;50.956;7.002;2024-02-26T10:11:25;4.63;;;3.13;;
5959;SDS011;3006;50.956;7.002;2024-02-26T10:13:54;7.13;;;3.30;;
5959;SDS011;3006;50.956;7.002;2024-02-26T10:16:23;3.17;;;2.40;;
5959;SDS011;3006;50.956;7.002;2024-02-26T10:18:53;3.87;;;2.40;;
5959;SDS011;3006;50.956;7.002;2024-02-26T10:21:25;2.67;;;2.47;;
5959;SDS011;3006;50.956;7.002;2024-02-26T10:23:53;5.00;;;3.40;;
5959;SDS011;3006;50.956;7.002;2024-02-26T10:26:22;3.50;;;2.37;;
5959;SDS011;3006;50.956;7.002;2024-02-26T10:28:50;4.50;;;2.57;;
5959;SDS011;3006;50.956;7.002;2024-02-26T10:31:21;2.50;;;2.30;;
5959;SDS011;3006;50.956;7.002;2024-02-26T10:33:51;4.77;;;2.67;;
5959;SDS011;3006;50.956;7.002;2024-02-26T10:36:25;5.73;;;3.10;;
5959;SDS011;3006;50.956;7.002;2024-02-26T10:39:11;2.83;;;2.40;;
5959;SDS011;3006;50.956;7.002;2024-02-26T10:41:40;2.43;;;2.23;;
5959;SDS011;3006;50.956;7.002;2024-02-26T10:44:08;3.70;;;2.60;;
5959;SDS011;3006;50.956;7.002;2024-02-26T10:46:43;2.63;;;2.43;;
5959;SDS011;3006;50.956;7.002;2024-02-26T10:49:17;3.00;;;2.70;;
5959;SDS011;3006;50.956;7.002;2024-02-26T10:51:49;3.50;;;2.73;;
5959;SDS011;3006;50.956;7.002;2024-02-26T10:54:22;4.33;;;2.80;;
5959;SDS011;3006;50.956;7.002;2024-02-26T10:56:53;5.30;;;4.80;;
5959;SDS011;3006;50.956;7.002;2024-02-26T10:59:23;2.77;;;2.23;;
5959;SDS011;3006;50.956;7.002;2024-02-26T11:01:51;3.57;;;2.97;;
5959;SDS011;3006;50.956;7.002;2024-02-26T11:04:23;4.03;;;2.53;;
5959;SDS011;3006;50.956;7.002;2024-02-26T11:06:54;2.87;;;2.37;;
5959;SDS011;3006;50.956;7.002;2024-02-26T11:09:24;5.10;;;3.53;;
5959;SDS011;3006;50.956;7.002;2024-02-26T11:11:54;5.00;;;3.87;;
5959;SDS011;3006;50.956;7.002;2024-02-26T11:14:24;5.03;;;3.33;;
5959;SDS011;3006;50.956;7.002;2024-02-26T11:16:54;5.40;;;3.10;;
5959;SDS011;3006;50.956;7.002;2024-02-26T11:19:25;3.70;;;2.70;;
5959;SDS011;3006;50.956;7.002;2024-02-26T11:21:55;4.03;;;2.60;;
5959;SDS011;3006;50.956;7.002;2024-02-26T11:24:29;3.83;;;2.27;;
5959;SDS011;3006;50.956;7.002;2024-02-26T11:26:59;2.93;;;2.63;;
5959;SDS011;3006;50.956;7.002;2024-02-26T11:29:32;3.30;;;2.43;;
5959;SDS011;3006;50.956;7.002;2024-02-26T11:32:04;2.90;;;2.60;;
5959;SDS011;3006;50.956;7.002;2024-02-26T11:34:35;5.13;;;3.60;;
5959;SDS011;3006;50.956;7.002;2024-02-26T11:37:10;3.30;;;2.53;;
5959;SDS011;3006;50.956;7.002;2024-02-26T11:39:39;3.00;;;2.70;;
5959;SDS011;3006;50.956;7.002;2024-02-26T11:42:08;3.60;;;2.97;;
5959;SDS011;3006;50.956;7.002;2024-02-26T11:44:37;4.80;;;2.57;;
5959;SDS011;3006;50.956;7.002;2024-02-26T11:47:11;5.70;;;3.03;;
5959;SDS011;3006;50.956;7.002;2024-02-26T11:49:42;3.10;;;2.50;;
5959;SDS011;3006;50.956;7.002;2024-02-26T11:52:10;3.40;;;3.00;;
5959;SDS011;3006;50.956;7.002;2024-02-26T11:54:43;6.10;;;2.97;;
5959;SDS011;3006;50.956;7.002;2024-02-26T11:57:22;3.77;;;3.40;;
5959;SDS011;3006;50.956;7.002;2024-02-26T11:59:51;3.97;;;3.57;;
5959;SDS011;3006;50.956;7.002;2024-02-26T12:02:39;4.87;;;3.00;;
5959;SDS011;3006;50.956;7.002;2024-02-26T12:05:11;3.53;;;2.80;;
5959;SDS011;3006;50.956;7.002;2024-02-26T12:07:42;3.00;;;2.80;;
5959;SDS011;3006;50.956;7.002;2024-02-26T12:10:15;3.30;;;2.77;;
5959;SDS011;3006;50.956;7.002;2024-02-26T12:12:55;2.90;;;2.63;;
5959;SDS011;3006;50.956;7.002;2024-02-26T12:15:30;4.60;;;4.10;;
5959;SDS011;3006;50.956;7.002;2024-02-26T12:18:03;3.20;;;2.90;;
5959;SDS011;3006;50.956;7.002;2024-02-26T12:20:35;5.70;;;2.80;;
5959;SDS011;3006;50.956;7.002;2024-02-26T12:23:03;4.60;;;2.60;;
5959;SDS011;3006;50.956;7.002;2024-02-26T12:25:32;6.10;;;3.17;;
5959;SDS011;3006;50.956;7.002;2024-02-26T12:28:01;3.07;;;2.77;;
5959;SDS011;3006;50.956;7.002;2024-02-26T12:30:29;2.90;;;2.60;;
5959;SDS011;3006;50.956;7.002;2024-02-26T12:32:59;4.10;;;3.43;;
5959;SDS011;3006;50.956;7.002;2024-02-26T12:35:29;9.10;;;5.87;;
5959;SDS011;3006;50.956;7.002;2024-02-26T12:38:00;3.70;;;3.23;;
5959;SDS011;3006;50.956;7.002;2024-02-26T12:40:30;4.17;;;3.37;;
5959;SDS011;3006;50.956;7.002;2024-02-26T12:42:59;3.47;;;3.17;;
5959;SDS011;3006;50.956;7.002;2024-02-26T12:45:28;4.17;;;3.67;;
5959;SDS011;3006;50.956;7.002;2024-02-26T12:47:56;3.47;;;3.07;;
5959;SDS011;3006;50.956;7.002;2024-02-26T12:50:24;4.50;;;3.17;;
5959;SDS011;3006;50.956;7.002;2024-02-26T12:52:53;6.43;;;3.90;;
5959;SDS011;3006;50.956;7.002;2024-02-26T12:55:23;4.50;;;3.57;;
5959;SDS011;3006;50.956;7.002;2024-02-26T12:57:50;4.27;;;3.13;;
5959;SDS011;3006;50.956;7.002;2024-02-26T13:00:21;6.00;;;4.50;;
5959;SDS011;3006;50.956;7.002;2024-02-26T13:02:52;5.47;;;3.57;;
5959;SDS011;3006;50.956;7.002;2024-02-26T13:05:22;6.20;;;4.10;;
5959;SDS011;3006;50.956;7.002;2024-02-26T13:07:51;4.57;;;3.63;;
5959;SDS011;3006;50.956;7.002;2024-02-26T13:10:20;4.80;;;4.03;;
5959;SDS011;3006;50.956;7.002;2024-02-26T13:12:49;6.40;;;3.63;;
5959;SDS011;3006;50.956;7.002;2024-02-26T13:15:18;3.93;;;3.50;;
5959;SDS011;3006;50.956;7.002;2024-02-26T13:17:48;6.53;;;4.40;;
5959;SDS011;3006;50.956;7.002;2024-02-26T13:20:25;4.87;;;3.90;;
5959;SDS011;3006;50.956;7.002;2024-02-26T13:23:01;5.90;;;3.67;;
5959;SDS011;3006;50.956;7.002;2024-02-26T13:25:30;5.17;;;3.80;;
5959;SDS011;3006;50.956;7.002;2024-02-26T13:28:07;3.77;;;3.10;;
5959;SDS011;3006;50.956;7.002;2024-02-26T13:30:36;5.50;;;3.60;;
5959;SDS011;3006;50.956;7.002;2024-02-26T13:33:07;6.07;;;4.10;;
5959;SDS011;3006;50.956;7.002;2024-02-26T13:35:37;6.00;;;4.07;;
5959;SDS011;3006;50.956;7.002;2024-02-26T13:38:06;5.80;;;4.07;;
5959;SDS011;3006;50.956;7.002;2024-02-26T13:40:34;4.20;;;3.80;;
5959;SDS011;3006;50.956;7.002;2024-02-26T13:43:03;10.17;;;4.00;;
5959;SDS011;3006;50.956;7.002;2024-02-26T13:45:34;6.33;;;4.40;;
5959;SDS011;3006;50.956;7.002;2024-02-26T13:48:04;5.50;;;4.47;;
5959;SDS011;3006;50.956;7.002;2024-02-26T13:50:33;6.40;;;4.10;;
5959;SDS011;3006;50.956;7.002;2024-02-26T13:53:02;9.87;;;4.77;;
5959;SDS011;3006;50.956;7.002;2024-02-26T13:55:31;5.53;;;4.87;;
5959;SDS011;3006;50.956;7.002;2024-02-26T13:57:59;7.70;;;4.60;;
5959;SDS011;3006;50.956;7.002;2024-02-26T14:00:28;4.57;;;3.90;;
5959;SDS011;3006;50.956;7.002;2024-02-26T14:02:59;5.53;;;4.37;;
5959;SDS011;3006;50.956;7.002;2024-02-26T14:05:28;4.93;;;3.70;;
5959;SDS011;3006;50.956;7.002;2024-02-26T14:07:57;7.80;;;4.20;;
5959;SDS011;3006;50.956;7.002;2024-02-26T14:10:25;5.03;;;4.20;;
5959;SDS011;3006;50.956;7.002;2024-02-26T14:12:53;5.97;;;3.93;;
5959;SDS011;3006;50.956;7.002;2024-02-26T14:15:21;4.43;;;3.93;;
5959;SDS011;3006;50.956;7.002;2024-02-26T14:17:51;5.93;;;4.30;;
5959;SDS011;3006;50.956;7.002;2024-02-26T14:20:24;7.40;;;4.73;;
5959;SDS011;3006;50.956;7.002;2024-02-26T14:22:53;7.67;;;5.10;;
5959;SDS011;3006;50.956;7.002;2024-02-26T14:25:21;7.47;;;4.80;;
5959;SDS011;3006;50.956;7.002;2024-02-26T14:27:53;4.87;;;3.90;;
5959;SDS011;3006;50.956;7.002;2024-02-26T14:30:21;5.60;;;4.23;;
5959;SDS011;3006;50.956;7.002;2024-02-26T14:32:50;5.63;;;4.67;;
5959;SDS011;3006;50.956;7.002;2024-02-26T14:35:18;6.17;;;4.80;;
5959;SDS011;3006;50.956;7.002;2024-02-26T14:37:48;7.40;;;4.37;;
5959;SDS011;3006;50.956;7.002;2024-02-26T14:40:18;5.03;;;4.50;;
5959;SDS011;3006;50.956;7.002;2024-02-26T14:42:47;7.93;;;5.43;;
5959;SDS011;3006;50.956;7.002;2024-02-26T14:45:15;11.30;;;4.87;;
5959;SDS011;3006;50.956;7.002;2024-02-26T14:47:43;7.20;;;5.50;;
5959;SDS011;3006;50.956;7.002;2024-02-26T14:50:12;11.43;;;9.33;;
5959;SDS011;3006;50.956;7.002;2024-02-26T14:52:40;9.40;;;6.40;;
5959;SDS011;3006;50.956;7.002;2024-02-26T14:55:09;7.30;;;5.87;;
5959;SDS011;3006;50.956;7.002;2024-02-26T14:57:38;9.00;;;7.23;;
5959;SDS011;3006;50.956;7.002;2024-02-26T15:00:06;7.40;;;6.40;;
5959;SDS011;3006;50.956;7.002;2024-02-26T15:02:36;11.57;;;6.80;;
5959;SDS011;3006;50.956;7.002;2024-02-26T15:05:04;8.63;;;6.97;;
5959;SDS011;3006;50.956;7.002;2024-02-26T15:07:34;8.70;;;6.80;;
5959;SDS011;3006;50.956;7.002;2024-02-26T15:10:06;8.50;;;6.70;;
5959;SDS011;3006;50.956;7.002;2024-02-26T15:12:36;11.43;;;8.87;;
5959;SDS011;3006;50.956;7.002;2024-02-26T15:15:05;9.00;;;7.10;;
5959;SDS011;3006;50.956;7.002;2024-02-26T15:17:34;7.97;;;6.57;;
5959;SDS011;3006;50.956;7.002;2024-02-26T15:20:03;8.00;;;6.37;;
5959;SDS011;3006;50.956;7.002;2024-02-26T15:22:34;9.90;;;7.73;;
5959;SDS011;3006;50.956;7.002;2024-02-26T15:25:02;9.20;;;6.80;;
5959;SDS011;3006;50.956;7.002;2024-02-26T15:27:31;8.10;;;6.90;;
5959;SDS011;3006;50.956;7.002;2024-02-26T15:30:02;12.43;;;8.57;;
5959;SDS011;3006;50.956;7.002;2024-02-26T15:32:31;12.57;;;8.70;;
5959;SDS011;3006;50.956;7.002;2024-02-26T15:34:59;13.27;;;10.50;;